createdAt,value
2023-02-05T00:00:49.123Z,1025.11
2023-02-05T00:01:48.336Z,1025.04
2023-02-05T00:02:49.130Z,1025.06
2023-02-05T00:03:49.139Z,1025.06
2023-02-05T00:04:48.283Z,1025.14
2023-02-05T00:05:48.295Z,1025.16
2023-02-05T00:06:48.280Z,1025.14
2023-02-05T00:07:48.265Z,1025.18
2023-02-05T00:08:48.243Z,1025.17
2023-02-05T00:09:48.266Z,1025.15
2023-02-05T00:10:48.205Z,1025.13
2023-02-05T00:11:48.269Z,1025.09
2023-02-05T00:12:48.260Z,1025.08
2023-02-05T00:13:48.191Z,1025.08
2023-02-05T00:14:48.204Z,1025.05
2023-02-05T00:15:48.147Z,1025.04
2023-02-05T00:16:48.142Z,1025.04
2023-02-05T00:17:48.128Z,1025.02
2023-02-05T00:18:48.117Z,1025.07
2023-02-05T00:19:48.109Z,1025.04
2023-02-05T00:20:48.097Z,1025.02
2023-02-05T00:21:48.090Z,1024.99
2023-02-05T00:22:48.080Z,1025.03
2023-02-05T00:23:48.070Z,1024.99
2023-02-05T00:24:48.059Z,1025.02
2023-02-05T00:25:48.052Z,1025.01
2023-02-05T00:26:48.058Z,1025.01
2023-02-05T00:27:48.029Z,1024.99
2023-02-05T00:28:48.019Z,1024.97
2023-02-05T00:29:48.003Z,1024.91
2023-02-05T00:30:48.014Z,1024.93
2023-02-05T00:31:47.999Z,1024.83
2023-02-05T00:32:47.999Z,1024.83
2023-02-05T00:33:47.975Z,1024.81
2023-02-05T00:34:48.025Z,1024.78
2023-02-05T00:35:47.959Z,1024.77
2023-02-05T00:36:47.936Z,1024.78
2023-02-05T00:37:47.934Z,1024.79
2023-02-05T00:38:47.925Z,1024.74
2023-02-05T00:39:47.906Z,1024.71
2023-02-05T00:40:47.895Z,1024.73
2023-02-05T00:41:47.893Z,1024.69
2023-02-05T00:42:47.884Z,1024.74
2023-02-05T00:43:47.868Z,1024.65
2023-02-05T00:44:47.854Z,1024.66
2023-02-05T00:45:47.846Z,1024.62
2023-02-05T00:46:47.834Z,1024.57
2023-02-05T00:47:47.825Z,1024.55
2023-02-05T00:48:47.818Z,1024.57
2023-02-05T00:49:47.805Z,1024.51
2023-02-05T00:50:47.795Z,1024.57
2023-02-05T00:51:47.779Z,1024.41
2023-02-05T00:52:47.770Z,1024.51
2023-02-05T00:53:47.768Z,1024.48
2023-02-05T00:54:47.754Z,1024.47
2023-02-05T00:55:47.740Z,1024.44
2023-02-05T00:56:47.730Z,1024.38
2023-02-05T00:57:47.729Z,1024.39
2023-02-05T00:58:47.710Z,1024.37
2023-02-05T00:59:47.705Z,1024.31
2023-02-05T01:00:47.708Z,1024.33
2023-02-05T01:01:47.682Z,1024.37
2023-02-05T01:02:47.675Z,1024.38
2023-02-05T01:03:47.662Z,1024.37
2023-02-05T01:04:47.649Z,1024.32
2023-02-05T01:05:47.642Z,1024.31
2023-02-05T01:06:47.634Z,1024.23
2023-02-05T01:07:47.630Z,1024.25
2023-02-05T01:08:47.611Z,1024.28
2023-02-05T01:09:47.602Z,1024.31
2023-02-05T01:10:47.631Z,1024.21
2023-02-05T01:11:47.581Z,1024.24
2023-02-05T01:12:47.575Z,1024.22
2023-02-05T01:13:47.561Z,1024.16
2023-02-05T01:14:47.552Z,1024.13
2023-02-05T01:15:47.539Z,1024.05
2023-02-05T01:16:47.531Z,1024.1
2023-02-05T01:17:47.523Z,1024.08
2023-02-05T01:18:47.507Z,1023.98
2023-02-05T01:19:47.504Z,1024.03
2023-02-05T01:20:47.486Z,1024.05
2023-02-05T01:21:47.480Z,1024.06
2023-02-05T01:22:47.469Z,1024.13
2023-02-05T01:23:47.455Z,1024.11
2023-02-05T01:24:47.452Z,1024.09
2023-02-05T01:25:47.444Z,1024.12
2023-02-05T01:26:47.430Z,1024.12
2023-02-05T01:27:47.416Z,1024.1
2023-02-05T01:28:47.407Z,1024.09
2023-02-05T01:29:47.400Z,1024.06
2023-02-05T01:30:47.387Z,1024.08
2023-02-05T01:31:47.377Z,1024.01
2023-02-05T01:32:47.364Z,1023.96
2023-02-05T01:33:47.359Z,1023.98
2023-02-05T01:34:47.347Z,1023.94
2023-02-05T01:35:47.336Z,1023.84
2023-02-05T01:36:47.327Z,1023.92
2023-02-05T01:37:47.315Z,1023.86
2023-02-05T01:38:47.311Z,1023.8
2023-02-05T01:39:47.304Z,1023.79
2023-02-05T01:40:47.307Z,1023.73
2023-02-05T01:41:47.277Z,1023.73
2023-02-05T01:42:47.262Z,1023.72
2023-02-05T01:43:47.266Z,1023.77
2023-02-05T01:44:47.241Z,1023.78
2023-02-05T01:45:47.255Z,1023.74
2023-02-05T01:46:47.237Z,1023.74
2023-02-05T01:47:47.212Z,1023.71
2023-02-05T01:48:47.201Z,1023.7
2023-02-05T01:49:47.195Z,1023.64
2023-02-05T01:50:47.190Z,1023.6
2023-02-05T01:51:47.179Z,1023.56
2023-02-05T01:52:47.174Z,1023.66
2023-02-05T01:53:47.150Z,1023.63
2023-02-05T01:54:47.138Z,1023.69
2023-02-05T01:55:47.137Z,1023.7
2023-02-05T01:56:47.129Z,1023.68
2023-02-05T01:57:47.109Z,1023.65
2023-02-05T01:58:47.100Z,1023.67
2023-02-05T01:59:47.088Z,1023.74
2023-02-05T02:00:47.082Z,1023.75
2023-02-05T02:01:47.072Z,1023.78
2023-02-05T02:02:47.068Z,1023.82
2023-02-05T02:03:47.047Z,1023.87
2023-02-05T02:04:47.037Z,1023.89
2023-02-05T02:05:47.034Z,1023.84
2023-02-05T02:06:47.019Z,1023.78
2023-02-05T02:07:47.006Z,1023.74
2023-02-05T02:08:46.995Z,1023.74
2023-02-05T02:09:46.981Z,1023.77
2023-02-05T02:10:46.971Z,1023.73
2023-02-05T02:11:46.960Z,1023.7
2023-02-05T02:12:46.951Z,1023.69
2023-02-05T02:13:46.945Z,1023.66
2023-02-05T02:14:46.930Z,1023.63
2023-02-05T02:15:46.922Z,1023.62
2023-02-05T02:16:46.907Z,1023.62
2023-02-05T02:17:46.907Z,1023.61
2023-02-05T02:18:46.892Z,1023.61
2023-02-05T02:19:46.879Z,1023.55
2023-02-05T02:20:46.868Z,1023.5
2023-02-05T02:21:46.857Z,1023.57
2023-02-05T02:22:46.847Z,1023.51
2023-02-05T02:23:46.840Z,1023.51
2023-02-05T02:24:46.830Z,1023.47
2023-02-05T02:25:46.821Z,1023.42
2023-02-05T02:26:46.807Z,1023.42
2023-02-05T02:27:46.797Z,1023.43
2023-02-05T02:28:46.789Z,1023.49
2023-02-05T02:29:46.777Z,1023.5
2023-02-05T02:30:46.770Z,1023.49
2023-02-05T02:31:46.778Z,1023.46
2023-02-05T02:32:46.748Z,1023.46
2023-02-05T02:33:46.739Z,1023.35
2023-02-05T02:34:46.722Z,1023.36
2023-02-05T02:35:46.716Z,1023.32
2023-02-05T02:36:46.708Z,1023.39
2023-02-05T02:37:46.694Z,1023.37
2023-02-05T02:38:46.683Z,1023.38
2023-02-05T02:39:46.676Z,1023.36
2023-02-05T02:40:46.666Z,1023.41
2023-02-05T02:41:46.652Z,1023.46
2023-02-05T02:42:46.644Z,1023.52
2023-02-05T02:43:46.633Z,1023.54
2023-02-05T02:44:46.622Z,1023.56
2023-02-05T02:45:46.616Z,1023.51
2023-02-05T02:46:46.607Z,1023.52
2023-02-05T02:47:46.589Z,1023.45
2023-02-05T02:48:46.586Z,1023.46
2023-02-05T02:49:46.570Z,1023.54
2023-02-05T02:50:55.159Z,1023.56
2023-02-05T02:51:46.547Z,1023.54
2023-02-05T02:52:46.537Z,1023.55
2023-02-05T02:53:46.533Z,1023.59
2023-02-05T02:54:46.519Z,1023.61
2023-02-05T02:55:46.513Z,1023.6
2023-02-05T02:56:46.500Z,1023.61
2023-02-05T02:57:46.488Z,1023.58
2023-02-05T02:58:46.476Z,1023.58
2023-02-05T02:59:46.478Z,1023.56
2023-02-05T03:00:46.467Z,1023.51
2023-02-05T03:01:46.463Z,1023.52
2023-02-05T03:02:46.449Z,1023.43
2023-02-05T03:03:46.430Z,1023.4
2023-02-05T03:04:46.419Z,1023.37
2023-02-05T03:05:46.406Z,1023.34
2023-02-05T03:06:46.396Z,1023.4
2023-02-05T03:07:46.390Z,1023.39
2023-02-05T03:08:46.377Z,1023.43
2023-02-05T03:09:46.368Z,1023.44
2023-02-05T03:10:46.354Z,1023.5
2023-02-05T03:11:46.347Z,1023.57
2023-02-05T03:12:46.345Z,1023.59
2023-02-05T03:13:46.329Z,1023.61
2023-02-05T03:14:46.317Z,1023.67
2023-02-05T03:15:46.306Z,1023.7
2023-02-05T03:16:46.296Z,1023.69
2023-02-05T03:17:46.284Z,1023.64
2023-02-05T03:18:46.278Z,1023.62
2023-02-05T03:19:46.265Z,1023.57
2023-02-05T03:20:46.253Z,1023.55
2023-02-05T03:21:46.250Z,1023.58
2023-02-05T03:22:46.239Z,1023.53
2023-02-05T03:23:46.239Z,1023.53
2023-02-05T03:24:46.217Z,1023.5
2023-02-05T03:25:46.207Z,1023.48
2023-02-05T03:26:46.198Z,1023.39
2023-02-05T03:27:46.183Z,1023.36
2023-02-05T03:28:46.195Z,1023.33
2023-02-05T03:29:46.162Z,1023.38
2023-02-05T03:30:46.158Z,1023.32
2023-02-05T03:31:46.144Z,1023.33
2023-02-05T03:32:46.150Z,1023.29
2023-02-05T03:33:46.129Z,1023.29
2023-02-05T03:34:46.120Z,1023.24
2023-02-05T03:35:46.103Z,1023.26
2023-02-05T03:36:46.098Z,1023.21
2023-02-05T03:37:46.086Z,1023.21
2023-02-05T03:38:46.070Z,1023.18
2023-02-05T03:39:46.062Z,1023.19
2023-02-05T03:40:46.078Z,1023.16
2023-02-05T03:41:46.039Z,1023.14
2023-02-05T03:42:46.031Z,1023.13
2023-02-05T03:43:46.022Z,1023.1
2023-02-05T03:44:46.017Z,1023.13
2023-02-05T03:45:46.004Z,1023.14
2023-02-05T03:46:46.002Z,1023.15
2023-02-05T03:47:45.981Z,1023.1
2023-02-05T03:48:45.970Z,1023.13
2023-02-05T03:49:45.971Z,1023.13
2023-02-05T03:50:45.956Z,1023.05
2023-02-05T03:51:45.945Z,1023.11
2023-02-05T03:52:45.932Z,1023.07
2023-02-05T03:53:45.916Z,1023.02
2023-02-05T03:54:45.909Z,1023.1
2023-02-05T03:55:45.908Z,1023.09
2023-02-05T03:56:45.889Z,1023.08
2023-02-05T03:57:45.887Z,1023.1
2023-02-05T03:58:45.867Z,1023.11
2023-02-05T03:59:45.855Z,1023.08
2023-02-05T04:00:45.865Z,1023.06
2023-02-05T04:01:45.839Z,1023.1
2023-02-05T04:02:45.828Z,1023.19
2023-02-05T04:03:45.818Z,1023.22
2023-02-05T04:04:45.813Z,1023.22
2023-02-05T04:05:45.796Z,1023.26
2023-02-05T04:06:45.795Z,1023.33
2023-02-05T04:07:45.777Z,1023.27
2023-02-05T04:08:45.767Z,1023.23
2023-02-05T04:09:45.760Z,1023.22
2023-02-05T04:10:45.759Z,1023.24
2023-02-05T04:11:45.738Z,1023.24
2023-02-05T04:12:45.726Z,1023.21
2023-02-05T04:13:45.724Z,1023.16
2023-02-05T04:14:45.711Z,1023.17
2023-02-05T04:15:45.702Z,1023.16
2023-02-05T04:16:45.688Z,1023.21
2023-02-05T04:17:45.678Z,1023.24
2023-02-05T04:18:45.664Z,1023.29
2023-02-05T04:19:45.657Z,1023.21
2023-02-05T04:20:45.644Z,1023.28
2023-02-05T04:21:45.634Z,1023.27
2023-02-05T04:22:45.633Z,1023.26
2023-02-05T04:23:45.613Z,1023.23
2023-02-05T04:24:45.608Z,1023.33
2023-02-05T04:25:45.592Z,1023.29
2023-02-05T04:26:45.585Z,1023.24
2023-02-05T04:27:45.573Z,1023.21
2023-02-05T04:28:45.565Z,1023.19
2023-02-05T04:29:45.557Z,1023.3
2023-02-05T04:30:45.556Z,1023.26
2023-02-05T04:31:45.535Z,1023.28
2023-02-05T04:32:45.522Z,1023.28
2023-02-05T04:33:45.518Z,1023.31
2023-02-05T04:34:45.504Z,1023.26
2023-02-05T04:35:45.495Z,1023.24
2023-02-05T04:36:45.480Z,1023.2
2023-02-05T04:37:45.472Z,1023.22
2023-02-05T04:38:45.461Z,1023.16
2023-02-05T04:39:45.458Z,1023.19
2023-02-05T04:40:45.440Z,1023.15
2023-02-05T04:41:45.432Z,1023.14
2023-02-05T04:42:45.421Z,1023.12
2023-02-05T04:43:45.411Z,1023.13
2023-02-05T04:44:45.402Z,1023.09
2023-02-05T04:45:45.389Z,1023.13
2023-02-05T04:46:45.384Z,1023.12
2023-02-05T04:47:45.369Z,1023.17
2023-02-05T04:48:45.363Z,1023.17
2023-02-05T04:49:45.348Z,1023.15
2023-02-05T04:50:45.337Z,1023.17
2023-02-05T04:51:45.332Z,1023.18
2023-02-05T04:52:45.320Z,1023.15
2023-02-05T04:53:45.311Z,1023.18
2023-02-05T04:54:45.303Z,1023.18
2023-02-05T04:55:45.289Z,1023.09
2023-02-05T04:56:45.274Z,1023.06
2023-02-05T04:57:45.266Z,1023.1
2023-02-05T04:58:45.258Z,1023.12
2023-02-05T04:59:45.242Z,1023.08
2023-02-05T05:00:45.242Z,1023.08
2023-02-05T05:01:45.225Z,1023.12
2023-02-05T05:02:45.212Z,1023.15
2023-02-05T05:03:45.203Z,1023.12
2023-02-05T05:04:45.195Z,1023.18
2023-02-05T05:05:45.183Z,1023.17
2023-02-05T05:06:45.172Z,1023.19
2023-02-05T05:07:45.165Z,1023.19
2023-02-05T05:08:45.155Z,1023.19
2023-02-05T05:09:45.147Z,1023.16
2023-02-05T05:10:45.146Z,1023.14
2023-02-05T05:11:45.131Z,1023.1
2023-02-05T05:12:45.114Z,1023.1
2023-02-05T05:13:45.098Z,1022.99
2023-02-05T05:14:45.089Z,1023.03
2023-02-05T05:15:45.083Z,1022.96
2023-02-05T05:16:45.078Z,1022.98
2023-02-05T05:17:45.057Z,1022.96
2023-02-05T05:18:45.055Z,1022.95
2023-02-05T05:19:45.044Z,1022.95
2023-02-05T05:20:45.028Z,1022.99
2023-02-05T05:21:45.018Z,1023.01
2023-02-05T05:22:45.010Z,1023.1
2023-02-05T05:23:44.993Z,1023.01
2023-02-05T05:24:44.988Z,1023
2023-02-05T05:25:44.974Z,1023.04
2023-02-05T05:26:44.968Z,1023
2023-02-05T05:27:44.952Z,1022.98
2023-02-05T05:28:44.942Z,1022.99
2023-02-05T05:29:44.944Z,1022.99
2023-02-05T05:30:44.933Z,1022.93
2023-02-05T05:31:44.912Z,1022.9
2023-02-05T05:32:44.906Z,1022.77
2023-02-05T05:33:44.895Z,1022.78
2023-02-05T05:34:44.882Z,1022.68
2023-02-05T05:35:44.880Z,1022.63
2023-02-05T05:36:44.870Z,1022.61
2023-02-05T05:37:44.853Z,1022.68
2023-02-05T05:38:44.841Z,1022.52
2023-02-05T05:39:44.840Z,1022.6
2023-02-05T05:40:44.827Z,1022.57
2023-02-05T05:41:44.812Z,1022.58
2023-02-05T05:42:44.804Z,1022.55
2023-02-05T05:43:44.787Z,1022.56
2023-02-05T05:44:44.778Z,1022.54
2023-02-05T05:45:44.773Z,1022.52
2023-02-05T05:46:44.756Z,1022.47
2023-02-05T05:47:44.748Z,1022.54
2023-02-05T05:48:44.741Z,1022.51
2023-02-05T05:49:44.729Z,1022.5
2023-02-05T05:50:44.719Z,1022.47
2023-02-05T05:51:44.726Z,1022.48
2023-02-05T05:52:44.694Z,1022.43
2023-02-05T05:53:52.251Z,1022.4
2023-02-05T05:54:52.247Z,1022.38
2023-02-05T05:55:44.669Z,1022.47
2023-02-05T05:56:53.239Z,1022.5
2023-02-05T05:57:53.231Z,1022.52
2023-02-05T05:58:52.233Z,1022.56
2023-02-05T05:59:52.191Z,1022.52
2023-02-05T06:00:52.235Z,1022.49
2023-02-05T06:01:52.171Z,1022.58
2023-02-05T06:02:44.595Z,1022.62
2023-02-05T06:03:52.160Z,1022.64
2023-02-05T06:04:44.571Z,1022.58
2023-02-05T06:05:44.567Z,1022.61
2023-02-05T06:06:44.555Z,1022.51
2023-02-05T06:07:44.545Z,1022.57
2023-02-05T06:08:44.536Z,1022.55
2023-02-05T06:09:44.526Z,1022.57
2023-02-05T06:10:44.516Z,1022.57
2023-02-05T06:11:44.508Z,1022.6
2023-02-05T06:12:44.491Z,1022.58
2023-02-05T06:13:44.485Z,1022.63
2023-02-05T06:14:44.475Z,1022.65
2023-02-05T06:15:44.461Z,1022.64
2023-02-05T06:16:53.039Z,1022.56
2023-02-05T06:17:52.002Z,1022.59
2023-02-05T06:18:52.004Z,1022.57
2023-02-05T06:19:51.981Z,1022.56
2023-02-05T06:20:44.415Z,1022.55
2023-02-05T06:21:44.398Z,1022.54
2023-02-05T06:22:51.957Z,1022.46
2023-02-05T06:23:44.397Z,1022.44
2023-02-05T06:24:44.377Z,1022.43
2023-02-05T06:25:44.364Z,1022.34
2023-02-05T06:26:44.346Z,1022.3
2023-02-05T06:27:52.930Z,1022.35
2023-02-05T06:28:44.329Z,1022.34
2023-02-05T06:29:44.316Z,1022.28
2023-02-05T06:30:44.309Z,1022.29
2023-02-05T06:31:44.294Z,1022.29
2023-02-05T06:32:44.285Z,1022.32
2023-02-05T06:33:44.283Z,1022.25
2023-02-05T06:34:44.267Z,1022.29
2023-02-05T06:35:44.262Z,1022.31
2023-02-05T06:36:44.244Z,1022.22
2023-02-05T06:37:44.241Z,1022.2
2023-02-05T06:38:44.221Z,1022.26
2023-02-05T06:39:44.211Z,1022.23
2023-02-05T06:40:44.214Z,1022.18
2023-02-05T06:41:44.200Z,1022.21
2023-02-05T06:42:44.186Z,1022.14
2023-02-05T06:43:44.179Z,1022.19
2023-02-05T06:44:44.167Z,1022.2
2023-02-05T06:45:44.153Z,1022.26
2023-02-05T06:46:44.160Z,1022.21
2023-02-05T06:47:44.131Z,1022.21
2023-02-05T06:48:44.121Z,1022.2
2023-02-05T06:49:44.114Z,1022.23
2023-02-05T06:50:44.106Z,1022.22
2023-02-05T06:51:44.092Z,1022.24
2023-02-05T06:52:44.087Z,1022.22
2023-02-05T06:53:44.074Z,1022.15
2023-02-05T06:54:44.063Z,1022.16
2023-02-05T06:55:44.052Z,1022.12
2023-02-05T06:56:44.043Z,1022.14
2023-02-05T06:57:44.030Z,1022.2
2023-02-05T06:58:44.020Z,1022.15
2023-02-05T06:59:44.010Z,1022.12
2023-02-05T07:00:44.036Z,1022.15
2023-02-05T07:01:43.990Z,1022.16
2023-02-05T07:02:43.984Z,1022.17
2023-02-05T07:03:43.975Z,1022.16
2023-02-05T07:04:43.968Z,1022.16
2023-02-05T07:05:43.949Z,1022.18
2023-02-05T07:06:43.939Z,1022.14
2023-02-05T07:07:43.936Z,1022.15
2023-02-05T07:08:43.920Z,1022.14
2023-02-05T07:09:43.912Z,1022.1
2023-02-05T07:10:43.914Z,1022.1
2023-02-05T07:11:43.897Z,1022.14
2023-02-05T07:12:43.880Z,1022.09
2023-02-05T07:13:43.871Z,1022.13
2023-02-05T07:14:43.858Z,1022.13
2023-02-05T07:15:43.850Z,1022.08
2023-02-05T07:16:43.842Z,1022.07
2023-02-05T07:17:43.830Z,1022.08
2023-02-05T07:18:43.828Z,1022.05
2023-02-05T07:19:43.810Z,1022.01
2023-02-05T07:20:43.822Z,1022.02
2023-02-05T07:21:43.795Z,1022.09
2023-02-05T07:22:43.814Z,1022.12
2023-02-05T07:23:43.774Z,1022.04
2023-02-05T07:24:43.760Z,1022.1
2023-02-05T07:25:43.756Z,1022
2023-02-05T07:26:43.736Z,1022.04
2023-02-05T07:27:43.731Z,1022.02
2023-02-05T07:28:43.712Z,1022.02
2023-02-05T07:29:43.713Z,1022.03
2023-02-05T07:30:43.699Z,1022.07
2023-02-05T07:31:44.619Z,1022.07
2023-02-05T07:32:43.674Z,1022.11
2023-02-05T07:33:43.661Z,1022.11
2023-02-05T07:34:43.654Z,1022.1
2023-02-05T07:35:43.650Z,1022.02
2023-02-05T07:36:43.636Z,1022.06
2023-02-05T07:37:43.625Z,1022.02
2023-02-05T07:38:43.630Z,1022.11
2023-02-05T07:39:43.602Z,1022.04
2023-02-05T07:40:43.593Z,1022.11
2023-02-05T07:41:43.586Z,1022.12
2023-02-05T07:42:43.581Z,1022.13
2023-02-05T07:43:43.558Z,1022.15
2023-02-05T07:44:43.553Z,1022.09
2023-02-05T07:45:43.541Z,1022.15
2023-02-05T07:46:43.531Z,1022.22
2023-02-05T07:47:43.525Z,1022.19
2023-02-05T07:48:43.511Z,1022.2
2023-02-05T07:49:43.502Z,1022.19
2023-02-05T07:50:43.489Z,1022.17
2023-02-05T07:51:43.485Z,1022.17
2023-02-05T07:52:43.467Z,1022.13
2023-02-05T07:53:43.459Z,1022.15
2023-02-05T07:54:43.460Z,1022.24
2023-02-05T07:55:43.437Z,1022.23
2023-02-05T07:56:43.434Z,1022.27
2023-02-05T07:57:43.428Z,1022.24
2023-02-05T07:58:43.407Z,1022.23
2023-02-05T07:59:43.396Z,1022.21
2023-02-05T08:00:43.386Z,1022.2
2023-02-05T08:01:43.374Z,1022.19
2023-02-05T08:02:43.363Z,1022.24
2023-02-05T08:03:43.355Z,1022.19
2023-02-05T08:04:43.352Z,1022.22
2023-02-05T08:05:43.335Z,1022.14
2023-02-05T08:06:43.329Z,1022.14
2023-02-05T08:07:43.313Z,1022.2
2023-02-05T08:08:43.301Z,1022.17
2023-02-05T08:09:43.293Z,1022.25
2023-02-05T08:10:43.280Z,1022.26
2023-02-05T08:11:43.272Z,1022.28
2023-02-05T08:12:43.266Z,1022.2
2023-02-05T08:13:43.252Z,1022.15
2023-02-05T08:14:43.242Z,1022.27
2023-02-05T08:15:43.229Z,1022.23
2023-02-05T08:16:43.225Z,1022.24
2023-02-05T08:17:43.209Z,1022.27
2023-02-05T08:18:43.204Z,1022.16
2023-02-05T08:19:43.193Z,1022.19
2023-02-05T08:20:43.185Z,1022.21
2023-02-05T08:21:43.174Z,1022.22
2023-02-05T08:22:43.170Z,1022.18
2023-02-05T08:23:43.165Z,1022.15
2023-02-05T08:24:43.146Z,1022.18
2023-02-05T08:25:43.126Z,1022.18
2023-02-05T08:26:43.124Z,1022.2
2023-02-05T08:27:43.114Z,1022.09
2023-02-05T08:28:43.110Z,1022.09
2023-02-05T08:29:43.086Z,1022.13
2023-02-05T08:30:43.076Z,1022.05
2023-02-05T08:31:43.078Z,1022.04
2023-02-05T08:32:43.057Z,1022.06
2023-02-05T08:33:43.049Z,1022.12
2023-02-05T08:34:43.038Z,1022.07
2023-02-05T08:35:43.024Z,1022.07
2023-02-05T08:36:43.040Z,1022.06
2023-02-05T08:37:43.019Z,1022
2023-02-05T08:38:43.001Z,1021.99
2023-02-05T08:39:42.987Z,1022.03
2023-02-05T08:40:42.981Z,1022.03
2023-02-05T08:41:42.973Z,1022.04
2023-02-05T08:42:42.953Z,1022.03
2023-02-05T08:43:42.950Z,1022.03
2023-02-05T08:44:42.947Z,1021.98
2023-02-05T08:45:42.922Z,1021.95
2023-02-05T08:46:42.914Z,1021.94
2023-02-05T08:47:42.906Z,1021.91
2023-02-05T08:48:42.895Z,1021.91
2023-02-05T08:49:42.885Z,1021.96
2023-02-05T08:50:42.873Z,1021.95
2023-02-05T08:51:42.864Z,1021.92
2023-02-05T08:52:42.856Z,1021.86
2023-02-05T08:53:42.845Z,1021.89
2023-02-05T08:54:42.844Z,1021.92
2023-02-05T08:55:42.820Z,1021.9
2023-02-05T08:56:42.822Z,1021.87
2023-02-05T08:57:42.807Z,1021.88
2023-02-05T08:58:42.792Z,1021.85
2023-02-05T08:59:42.789Z,1021.93
2023-02-05T09:00:42.780Z,1021.86
2023-02-05T09:01:42.763Z,1021.88
2023-02-05T09:02:42.764Z,1021.83
2023-02-05T09:03:42.754Z,1021.86
2023-02-05T09:04:42.730Z,1021.79
2023-02-05T09:05:42.721Z,1021.83
2023-02-05T09:06:42.719Z,1021.82
2023-02-05T09:07:42.697Z,1021.85
2023-02-05T09:08:42.695Z,1021.84
2023-02-05T09:09:42.680Z,1021.89
2023-02-05T09:10:42.668Z,1021.84
2023-02-05T09:11:42.661Z,1021.83
2023-02-05T09:12:42.662Z,1021.82
2023-02-05T09:13:42.638Z,1021.83
2023-02-05T09:14:42.643Z,1021.81
2023-02-05T09:15:42.635Z,1021.79
2023-02-05T09:16:42.608Z,1021.82
2023-02-05T09:17:42.599Z,1021.79
2023-02-05T09:18:42.595Z,1021.8
2023-02-05T09:19:42.579Z,1021.77
2023-02-05T09:20:42.563Z,1021.83
2023-02-05T09:21:42.573Z,1021.76
2023-02-05T09:22:42.551Z,1021.79
2023-02-05T09:23:42.538Z,1021.74
2023-02-05T09:24:42.531Z,1021.69
2023-02-05T09:25:42.518Z,1021.71
2023-02-05T09:26:42.507Z,1021.78
2023-02-05T09:27:42.495Z,1021.77
2023-02-05T09:28:42.484Z,1021.72
2023-02-05T09:29:42.482Z,1021.81
2023-02-05T09:30:42.469Z,1021.8
2023-02-05T09:31:42.464Z,1021.85
2023-02-05T09:32:42.448Z,1021.85
2023-02-05T09:33:42.433Z,1021.82
2023-02-05T09:34:42.427Z,1021.87
2023-02-05T09:35:42.422Z,1021.84
2023-02-05T09:36:42.407Z,1021.88
2023-02-05T09:37:42.401Z,1021.83
2023-02-05T09:38:42.382Z,1021.82
2023-02-05T09:39:42.374Z,1021.83
2023-02-05T09:40:42.375Z,1021.79
2023-02-05T09:41:42.350Z,1021.78
2023-02-05T09:42:42.345Z,1021.74
2023-02-05T09:43:42.343Z,1021.73
2023-02-05T09:44:42.326Z,1021.77
2023-02-05T09:45:42.319Z,1021.74
2023-02-05T09:46:42.303Z,1021.78
2023-02-05T09:47:42.293Z,1021.77
2023-02-05T09:48:42.281Z,1021.81
2023-02-05T09:49:42.282Z,1021.82
2023-02-05T09:50:42.264Z,1021.87
2023-02-05T09:51:42.250Z,1021.86
2023-02-05T09:52:42.241Z,1021.87
2023-02-05T09:53:42.227Z,1021.83
2023-02-05T09:54:42.217Z,1021.88
2023-02-05T09:55:42.209Z,1021.84
2023-02-05T09:56:42.202Z,1021.79
2023-02-05T09:57:42.189Z,1021.79
2023-02-05T09:58:42.178Z,1021.78
2023-02-05T09:59:42.166Z,1021.78
2023-02-05T10:00:42.153Z,1021.76
2023-02-05T10:01:42.154Z,1021.82
2023-02-05T10:02:42.133Z,1021.76
2023-02-05T10:03:42.122Z,1021.77
2023-02-05T10:04:42.130Z,1021.72
2023-02-05T10:05:42.102Z,1021.68
2023-02-05T10:06:42.100Z,1021.76
2023-02-05T10:07:42.082Z,1021.77
2023-02-05T10:08:42.092Z,1021.82
2023-02-05T10:09:42.077Z,1021.82
2023-02-05T10:10:42.064Z,1021.87
2023-02-05T10:11:42.044Z,1021.86
2023-02-05T10:12:42.030Z,1021.87
2023-02-05T10:13:42.023Z,1021.91
2023-02-05T10:14:42.013Z,1021.89
2023-02-05T10:15:42.002Z,1021.94
2023-02-05T10:16:41.993Z,1021.91
2023-02-05T10:17:41.979Z,1021.91
2023-02-05T10:18:41.969Z,1021.93
2023-02-05T10:19:41.958Z,1021.91
2023-02-05T10:20:41.947Z,1021.8
2023-02-05T10:21:41.937Z,1021.89
2023-02-05T10:22:41.942Z,1021.8
2023-02-05T10:23:41.922Z,1021.8
2023-02-05T10:24:41.911Z,1021.85
2023-02-05T10:25:41.894Z,1021.89
2023-02-05T10:26:41.881Z,1021.9
2023-02-05T10:27:41.880Z,1021.87
2023-02-05T10:28:41.862Z,1021.89
2023-02-05T10:29:41.871Z,1021.84
2023-02-05T10:30:41.843Z,1021.86
2023-02-05T10:31:41.839Z,1021.85
2023-02-05T10:32:41.820Z,1021.88
2023-02-05T10:33:41.807Z,1021.84
2023-02-05T10:34:41.800Z,1021.79
2023-02-05T10:35:41.790Z,1021.81
2023-02-05T10:36:41.823Z,1021.79
2023-02-05T10:37:41.766Z,1021.79
2023-02-05T10:38:41.756Z,1021.79
2023-02-05T10:39:41.765Z,1021.72
2023-02-05T10:40:41.739Z,1021.73
2023-02-05T10:41:41.725Z,1021.72
2023-02-05T10:42:41.715Z,1021.82
2023-02-05T10:43:41.703Z,1021.74
2023-02-05T10:44:41.698Z,1021.78
2023-02-05T10:45:41.689Z,1021.76
2023-02-05T10:46:41.678Z,1021.76
2023-02-05T10:47:41.655Z,1021.76
2023-02-05T10:48:41.689Z,1021.78
2023-02-05T10:49:41.637Z,1021.77
2023-02-05T10:50:41.624Z,1021.78
2023-02-05T10:51:41.627Z,1021.85
2023-02-05T10:52:41.610Z,1021.86
2023-02-05T10:53:41.600Z,1021.85
2023-02-05T10:54:41.604Z,1021.87
2023-02-05T10:55:41.576Z,1021.87
2023-02-05T10:56:41.602Z,1021.94
2023-02-05T10:57:41.555Z,1021.89
2023-02-05T10:58:41.550Z,1021.86
2023-02-05T10:59:41.534Z,1021.96
2023-02-05T11:00:41.518Z,1021.93
2023-02-05T11:01:41.518Z,1021.89
2023-02-05T11:02:41.500Z,1021.91
2023-02-05T11:03:41.488Z,1021.83
2023-02-05T11:04:41.498Z,1021.85
2023-02-05T11:05:41.465Z,1021.87
2023-02-05T11:06:41.574Z,1021.82
2023-02-05T11:07:41.446Z,1021.91
2023-02-05T11:08:41.433Z,1021.91
2023-02-05T11:09:41.426Z,1021.92
2023-02-05T11:10:41.415Z,1021.98
2023-02-05T11:11:41.403Z,1022.02
2023-02-05T11:12:41.395Z,1021.96
2023-02-05T11:13:41.395Z,1021.98
2023-02-05T11:14:41.374Z,1021.97
2023-02-05T11:15:41.373Z,1022
2023-02-05T11:16:41.358Z,1022.06
2023-02-05T11:17:41.344Z,1022.1
2023-02-05T11:18:41.346Z,1022.06
2023-02-05T11:19:41.325Z,1022.07
2023-02-05T11:20:41.313Z,1022.1
2023-02-05T11:21:41.309Z,1022.09
2023-02-05T11:22:41.289Z,1022.13
2023-02-05T11:23:41.282Z,1022.09
2023-02-05T11:24:41.279Z,1022.12
2023-02-05T11:25:41.264Z,1022.15
2023-02-05T11:26:41.255Z,1022.19
2023-02-05T11:27:41.245Z,1022.15
2023-02-05T11:28:41.233Z,1022.22
2023-02-05T11:29:41.219Z,1022.21
2023-02-05T11:30:41.237Z,1022.18
2023-02-05T11:31:41.199Z,1022.15
2023-02-05T11:32:41.187Z,1022.18
2023-02-05T11:33:41.176Z,1022.16
2023-02-05T11:34:41.171Z,1022.22
2023-02-05T11:35:41.159Z,1022.23
2023-02-05T11:36:41.157Z,1022.2
2023-02-05T11:37:41.137Z,1022.18
2023-02-05T11:38:41.129Z,1022.21
2023-02-05T11:39:41.129Z,1022.23
2023-02-05T11:40:41.109Z,1022.26
2023-02-05T11:41:41.101Z,1022.29
2023-02-05T11:42:41.090Z,1022.24
2023-02-05T11:43:41.087Z,1022.32
2023-02-05T11:44:41.071Z,1022.32
2023-02-05T11:45:41.057Z,1022.29
2023-02-05T11:46:41.042Z,1022.31
2023-02-05T11:47:41.035Z,1022.28
2023-02-05T11:48:41.033Z,1022.26
2023-02-05T11:49:41.015Z,1022.24
2023-02-05T11:50:41.006Z,1022.22
2023-02-05T11:51:40.995Z,1022.29
2023-02-05T11:52:40.980Z,1022.28
2023-02-05T11:53:40.978Z,1022.29
2023-02-05T11:54:40.965Z,1022.36
2023-02-05T11:55:40.954Z,1022.34
2023-02-05T11:56:40.950Z,1022.29
2023-02-05T11:57:40.929Z,1022.31
2023-02-05T11:58:40.917Z,1022.33
2023-02-05T11:59:40.914Z,1022.33
2023-02-05T12:00:40.908Z,1022.39
2023-02-05T12:01:40.891Z,1022.46
2023-02-05T12:02:40.876Z,1022.39
2023-02-05T12:03:40.870Z,1022.4
2023-02-05T12:04:40.859Z,1022.5
2023-02-05T12:05:40.863Z,1022.52
2023-02-05T12:06:40.840Z,1022.41
2023-02-05T12:07:40.827Z,1022.49
2023-02-05T12:08:40.818Z,1022.52